Time;durP1;ratioP1;P1;durP2;ratioP2;P2;SDS_P1;SDS_P2;PMS_P1;PMS_P2;Temp;Humidity;BMP_temperature;BMP_pressure;BME280_temperature;BME280_humidity;BME280_pressure;Samples;Min_cycle;Max_cycle;Signal;HPM_P1;HPM_P2
2022/06/28 05:30:17;;;;;;;12.68;4.63;;;;;;;20.81;68.30;97232.03;11142090;24;20383;-82
2022/06/28 05:35:36;;;;;;;5.53;2.30;;;;;;;20.76;68.59;97230.28;10243598;24;20076;-82
2022/06/28 05:40:56;;;;;;;2.40;1.40;;;;;;;20.72;69.02;97232.84;9971371;29;20115;-82
2022/06/28 05:46:15;;;;;;;1.70;1.30;;;;;;;20.68;69.22;97242.72;9967889;29;20062;-81
2022/06/28 05:51:35;;;;;;;2.10;1.27;;;;;;;20.66;69.49;97236.00;9962388;29;20046;-81
2022/06/28 05:56:56;;;;;;;1.80;1.20;;;;;;;20.65;69.49;97239.84;9957761;29;20066;-81
2022/06/28 06:02:17;;;;;;;5.97;2.00;;;;;;;20.65;69.51;97243.34;9969143;29;20581;-81
2022/06/28 06:07:36;;;;;;;9.98;3.78;;;;;;;20.69;68.88;97251.63;9967593;29;20071;-81
2022/06/28 06:12:58;;;;;;;11.20;3.47;;;;;;;20.73;68.79;97256.06;9985852;29;20055;-82
2022/06/28 06:18:18;;;;;;;9.93;3.58;;;;;;;20.76;68.41;97260.06;9982089;29;20077;-81
2022/06/28 06:23:38;;;;;;;5.00;3.25;;;;;;;20.80;68.11;97276.47;9959487;29;20139;-81
2022/06/28 06:28:57;;;;;;;6.80;3.17;;;;;;;20.80;68.02;97282.69;9994733;29;20054;-82
2022/06/28 06:34:17;;;;;;;21.83;3.88;;;;;;;20.82;67.97;97288.56;9981460;29;20126;-82
2022/06/28 06:39:40;;;;;;;5.28;3.22;;;;;;;20.82;67.80;97302.13;9984795;29;20050;-82
2022/06/28 06:45:00;;;;;;;4.90;3.28;;;;;;;20.82;67.66;97323.00;10005774;29;20062;-82
2022/06/28 06:50:22;;;;;;;4.57;3.00;;;;;;;20.81;67.51;97330.28;10004597;29;20054;-81
2022/06/28 06:55:41;;;;;;;4.22;3.10;;;;;;;20.81;67.49;97341.13;9999131;29;20403;-81
2022/06/28 07:01:01;;;;;;;4.05;3.03;;;;;;;20.81;67.38;97337.63;10021969;29;20058;-82
2022/06/28 07:06:21;;;;;;;3.72;3.35;;;;;;;20.78;67.22;97344.47;9997973;29;20058;-82
2022/06/28 07:11:41;;;;;;;3.85;3.45;;;;;;;20.80;67.26;97349.59;10011445;29;20049;-82
2022/06/28 07:17:01;;;;;;;4.60;3.30;;;;;;;20.80;66.76;97347.66;10023016;29;20680;-82
2022/06/28 07:22:22;;;;;;;6.32;3.20;;;;;;;20.80;66.85;97352.28;9998392;29;20128;-82
2022/06/28 07:27:45;;;;;;;3.60;3.30;;;;;;;20.81;66.92;97367.41;10015642;29;20050;-82
2022/06/28 07:33:05;;;;;;;4.43;3.22;;;;;;;20.80;66.68;97371.25;10020205;29;20065;-82
2022/06/28 07:38:29;;;;;;;4.25;3.40;;;;;;;20.80;66.63;97384.78;10003049;29;20081;-81
2022/06/28 07:44:07;;;;;;;4.15;3.35;;;;;;;20.80;66.60;97390.22;10012512;29;20509;-82
2022/06/28 07:52:33;;;;;;;3.95;3.55;;;;;;;20.80;66.59;97395.63;9986125;29;20053;-82
2022/06/28 07:55:09;;;;;;;3.95;3.65;;;;;;;20.79;66.45;97402.13;10005093;29;20126;-81
2022/06/28 08:00:52;;;;;;;3.88;3.58;;;;;;;20.79;66.52;97407.56;10016163;29;20053;-81
2022/06/28 08:06:14;;;;;;;3.88;3.58;;;;;;;20.78;66.46;97414.06;10025841;29;20062;-81
2022/06/28 08:11:40;;;;;;;3.78;3.47;;;;;;;20.78;66.42;97423.00;10006189;29;20053;-82
2022/06/28 08:17:02;;;;;;;4.57;4.18;;;;;;;20.77;66.48;97424.09;10021317;29;20053;-81
2022/06/28 08:22:22;;;;;;;4.35;3.95;;;;;;;20.78;66.54;97431.13;10029450;29;20060;-81
2022/06/28 08:27:42;;;;;;;4.28;3.70;;;;;;;20.78;66.60;97430.31;10027844;29;20584;-81
2022/06/28 08:33:02;;;;;;;5.03;3.88;;;;;;;20.79;66.41;97431.91;10000727;29;20061;-82
2022/06/28 08:38:21;;;;;;;4.43;4.03;;;;;;;20.79;66.45;97426.50;10014518;29;20065;-81
2022/06/28 08:43:41;;;;;;;4.88;4.35;;;;;;;20.80;66.56;97422.69;9998982;29;20505;-81
2022/06/28 08:49:12;;;;;;;4.68;4.22;;;;;;;20.79;66.38;97415.69;10013134;29;20058;-81
2022/06/28 08:54:32;;;;;;;4.65;4.18;;;;;;;20.80;66.33;97414.56;9999438;29;20046;-81
2022/06/28 08:59:52;;;;;;;4.75;4.35;;;;;;;20.80;66.39;97401.03;10027056;29;20501;-82
2022/06/28 09:05:11;;;;;;;5.45;4.35;;;;;;;20.81;66.24;97410.75;10007640;29;20179;-82
2022/06/28 09:10:31;;;;;;;4.50;4.13;;;;;;;20.83;66.41;97414.72;9997819;29;20050;-82
2022/06/28 09:15:59;;;;;;;4.55;4.15;;;;;;;20.85;66.23;97417.13;10016739;29;20056;-82
2022/06/28 09:21:19;;;;;;;4.33;3.93;;;;;;;20.86;66.41;97424.94;10005086;29;20521;-82
2022/06/28 09:26:38;;;;;;;5.63;4.22;;;;;;;20.88;66.22;97427.31;10029742;29;20383;-82
2022/06/28 09:31:58;;;;;;;4.55;4.15;;;;;;;20.89;66.25;97437.03;9997356;29;20058;-82
2022/06/28 09:37:18;;;;;;;4.82;4.43;;;;;;;20.88;66.02;97430.03;10009882;29;20472;-82
2022/06/28 09:42:38;;;;;;;4.55;4.18;;;;;;;20.89;66.06;97442.44;10012486;29;20053;-82
2022/06/28 09:47:58;;;;;;;4.88;4.45;;;;;;;20.89;65.93;97434.31;10027254;29;20054;-82
2022/06/28 09:53:20;;;;;;;4.43;4.13;;;;;;;20.89;65.94;97426.19;10018795;29;20114;-82
2022/06/28 09:58:40;;;;;;;4.18;3.85;;;;;;;20.87;65.96;97434.63;10018401;29;20054;-82
2022/06/28 10:04:00;;;;;;;4.38;3.97;;;;;;;20.89;66.06;97442.44;10007615;29;20045;-82
2022/06/28 10:09:21;;;;;;;4.15;3.85;;;;;;;20.89;65.87;97431.59;10005734;29;20054;-82
2022/06/28 10:20:27;;;;;;;4.05;3.70;;;;;;;20.92;65.78;97448.03;10016910;29;20498;-82
2022/06/28 10:26:09;;;;;;;4.30;3.90;;;;;;;20.94;65.84;97450.41;10012596;29;20120;-82
2022/06/28 10:31:30;;;;;;;4.65;4.18;;;;;;;20.94;65.67;97450.41;10005595;29;20047;-82
2022/06/28 10:36:54;;;;;;;4.63;3.90;;;;;;;20.95;65.78;97443.88;10011865;29;20065;-82
2022/06/28 10:42:14;;;;;;;4.40;4.00;;;;;;;20.97;65.75;97448.97;10009338;29;20054;-83
2022/06/28 10:47:36;;;;;;;4.28;3.88;;;;;;;20.98;65.75;97447.88;9995012;29;20050;-82
2022/06/28 10:53:02;;;;;;;4.47;3.90;;;;;;;20.99;65.92;97431.28;9988994;29;20062;-82
2022/06/28 10:58:21;;;;;;;4.40;4.00;;;;;;;21.00;66.29;97422.06;9998193;29;20073;-82
2022/06/28 11:04:12;;;;;;;4.38;3.95;;;;;;;21.01;66.66;97407.41;10003071;29;20065;-82
2022/06/28 11:09:47;;;;;;;4.05;3.72;;;;;;;21.02;66.77;97392.75;10025219;29;20528;-82
2022/06/28 11:15:11;;;;;;;4.68;4.28;;;;;;;21.04;66.68;97384.31;10024360;29;20057;-83
2022/06/28 11:20:31;;;;;;;4.35;3.95;;;;;;;21.05;66.70;97394.81;10010733;29;20061;-82
2022/06/28 11:31:41;;;;;;;4.68;4.18;;;;;;;21.06;66.66;97407.25;10014689;29;20053;-83
2022/06/28 11:37:00;;;;;;;4.60;4.20;;;;;;;21.07;66.61;97406.13;10005155;29;20053;-82
2022/06/28 11:42:20;;;;;;;4.18;3.88;;;;;;;21.08;66.81;97396.09;10018297;29;20422;-82
2022/06/28 11:47:44;;;;;;;4.70;4.30;;;;;;;21.08;66.71;97396.88;10006781;29;20058;-82
2022/06/28 11:53:04;;;;;;;4.57;3.95;;;;;;;21.09;66.72;97384.13;9985817;29;20050;-82
2022/06/28 11:58:25;;;;;;;4.20;3.90;;;;;;;21.11;66.59;97379.19;10023739;29;20129;-83
2022/06/28 12:03:44;;;;;;;4.22;3.83;;;;;;;21.13;66.59;97377.75;9994956;29;20057;-83
2022/06/28 12:09:08;;;;;;;4.30;4.00;;;;;;;21.14;66.39;97363.09;10016752;29;20084;-82
2022/06/28 12:14:32;;;;;;;4.45;4.05;;;;;;;21.17;66.28;97360.84;10019233;29;20053;-83
2022/06/28 12:19:51;;;;;;;4.35;4.03;;;;;;;21.17;66.00;97350.84;10011573;29;20053;-83
2022/06/28 12:25:12;;;;;;;4.90;4.45;;;;;;;21.18;65.84;97343.50;10014718;29;20054;-84
2022/06/28 12:30:31;;;;;;;4.75;4.35;;;;;;;21.18;65.67;97357.81;10000269;29;20461;-83
2022/06/28 12:35:51;;;;;;;6.65;4.75;;;;;;;21.21;65.63;97345.53;9966100;29;20051;-84
2022/06/28 12:41:10;;;;;;;5.18;4.72;;;;;;;21.22;65.53;97353.34;9999470;29;20058;-83
2022/06/28 12:46:29;;;;;;;5.35;4.88;;;;;;;21.24;65.33;97356.53;10006769;29;20062;-83
2022/06/28 12:51:50;;;;;;;5.57;4.72;;;;;;;21.25;65.01;97350.00;9971219;29;20110;-83
2022/06/28 12:57:10;;;;;;;6.18;4.95;;;;;;;21.26;64.91;97331.84;10008927;29;20061;-83
2022/06/28 13:02:29;;;;;;;6.75;4.93;;;;;;;21.28;64.96;97316.06;9997701;29;20485;-83
2022/06/28 13:07:48;;;;;;;7.03;5.45;;;;;;;21.29;64.73;97314.94;9989397;29;20062;-83
2022/06/28 13:13:08;;;;;;;7.03;5.15;;;;;;;21.31;64.60;97313.50;9978189;29;20058;-84
2022/06/28 13:18:28;;;;;;;7.93;5.55;;;;;;;21.30;64.57;97300.25;10008643;29;20061;-84
2022/06/28 13:23:51;;;;;;;10.07;5.72;;;;;;;21.30;64.59;97303.75;10007368;29;20053;-84
2022/06/28 13:29:11;;;;;;;7.78;5.50;;;;;;;21.31;64.65;97293.72;10010543;29;20058;-84
2022/06/28 13:34:31;;;;;;;6.20;5.47;;;;;;;21.30;63.92;97294.84;10028742;29;20045;-84
2022/06/28 13:39:50;;;;;;;5.38;4.88;;;;;;;21.28;63.42;97280.81;10006272;29;20050;-83
2022/06/28 13:45:10;;;;;;;7.75;5.10;;;;;;;21.25;63.53;97265.22;9979608;29;20058;-83
2022/06/28 13:50:29;;;;;;;5.93;5.25;;;;;;;21.25;63.52;97265.22;10003534;29;20514;-83
2022/06/28 13:55:48;;;;;;;6.82;5.35;;;;;;;21.25;63.57;97259.81;9986738;29;20065;-83
2022/06/28 14:01:08;;;;;;;5.72;5.20;;;;;;;21.23;63.29;97243.03;10007654;29;20057;-84
2022/06/28 14:06:27;;;;;;;6.05;5.15;;;;;;;21.23;63.20;97241.16;10019491;29;20053;-84
2022/06/28 14:11:46;;;;;;;5.70;5.20;;;;;;;21.23;63.22;97240.34;10021726;29;20105;-84
2022/06/28 14:17:06;;;;;;;5.95;5.40;;;;;;;21.22;63.35;97244.97;10010267;29;20053;-84
2022/06/28 14:22:25;;;;;;;5.60;5.10;;;;;;;21.22;63.25;97247.69;9997712;29;20051;-84
2022/06/28 14:27:46;;;;;;;5.95;5.43;;;;;;;21.23;63.28;97243.03;10011228;29;20061;-84
2022/06/28 14:33:05;;;;;;;5.72;5.22;;;;;;;21.25;63.16;97243.53;10004609;29;20057;-83
2022/06/28 14:38:25;;;;;;;5.72;5.22;;;;;;;21.25;63.31;97238.91;10008550;29;20061;-83
2022/06/28 14:43:44;;;;;;;5.70;5.10;;;;;;;21.26;63.41;97239.69;10012636;29;20561;-83
2022/06/28 14:49:03;;;;;;;5.65;5.15;;;;;;;21.26;63.39;97226.16;10007946;29;20058;-83
2022/06/28 14:54:23;;;;;;;10.63;5.70;;;;;;;21.27;63.50;97219.63;9996942;29;20054;-83
2022/06/28 14:59:42;;;;;;;5.53;5.13;;;;;;;21.27;63.40;97214.22;9998532;29;20478;-84
2022/06/28 15:05:03;;;;;;;5.85;5.35;;;;;;;21.28;63.44;97221.19;10013092;29;20565;-83
2022/06/28 15:10:23;;;;;;;5.30;4.82;;;;;;;21.27;63.40;97206.88;10009859;29;20046;-83
2022/06/28 15:15:43;;;;;;;5.70;5.25;;;;;;;21.27;62.34;97209.56;9995491;29;20707;-82
2022/06/28 15:21:04;;;;;;;6.03;5.53;;;;;;;21.28;62.14;97203.03;10006308;29;20056;-83
2022/06/28 15:32:02;;;;;;;6.65;5.75;;;;;;;21.25;61.43;97200.97;10008816;29;20498;-82
2022/06/28 15:37:21;;;;;;;6.18;5.57;;;;;;;21.25;61.36;97197.47;10008458;29;20072;-82
2022/06/28 15:42:59;;;;;;;6.50;5.00;;;;;;;21.24;61.49;97196.66;10002422;29;20529;-82
2022/06/28 15:48:20;;;;;;;5.70;5.20;;;;;;;21.26;61.75;97196.34;9990092;29;20150;-82
2022/06/28 15:53:40;;;;;;;5.85;5.30;;;;;;;21.26;62.00;97196.34;9972781;29;20061;-82
2022/06/28 15:58:59;;;;;;;5.15;4.75;;;;;;;21.27;61.66;97193.31;10007839;29;20058;-84
2022/06/28 16:04:18;;;;;;;5.35;4.85;;;;;;;21.26;61.08;97190.94;10009786;29;20576;-86
2022/06/28 16:09:38;;;;;;;4.82;4.43;;;;;;;21.26;60.94;97204.47;9982428;29;20061;-83
2022/06/28 16:14:57;;;;;;;4.97;4.47;;;;;;;21.24;60.27;97193.97;10013630;29;21520;-83
2022/06/28 16:20:17;;;;;;;6.70;4.60;;;;;;;21.25;60.64;97184.72;10009647;29;20422;-83
2022/06/28 16:25:37;;;;;;;5.45;4.95;;;;;;;21.26;60.49;97180.09;10018105;29;20061;-84
2022/06/28 16:30:57;;;;;;;4.63;4.25;;;;;;;21.26;60.95;97153.78;9992257;29;20061;-84
2022/06/28 16:36:17;;;;;;;4.78;4.38;;;;;;;21.25;60.87;97146.00;9986945;29;20069;-84
2022/06/28 16:41:36;;;;;;;6.25;4.65;;;;;;;21.26;61.05;97129.41;10025057;29;20062;-83
2022/06/28 16:46:55;;;;;;;4.65;4.25;;;;;;;21.26;61.24;97110.44;9990433;29;20115;-84
2022/06/28 16:52:18;;;;;;;5.25;4.75;;;;;;;21.27;61.05;97120.16;10010005;29;20065;-82
2022/06/28 16:57:40;;;;;;;5.30;4.80;;;;;;;21.27;61.39;97109.31;10017585;29;20413;-82
2022/06/28 17:03:00;;;;;;;5.00;4.60;;;;;;;21.28;61.60;97101.97;9974883;29;20553;-83
2022/06/28 17:08:20;;;;;;;4.95;4.57;;;;;;;21.26;61.35;97104.22;10004889;29;20054;-83
2022/06/28 17:13:40;;;;;;;5.70;4.25;;;;;;;21.27;61.18;97111.25;9996146;29;20546;-84
2022/06/28 17:19:00;;;;;;;4.43;4.03;;;;;;;21.27;61.18;97111.25;10001436;29;20083;-83
2022/06/28 17:24:20;;;;;;;4.93;4.43;;;;;;;21.25;60.59;97106.16;10005694;29;20060;-83
2022/06/28 17:29:40;;;;;;;6.85;4.25;;;;;;;21.23;60.41;97100.25;9984452;29;20546;-83
2022/06/28 17:34:59;;;;;;;4.70;4.35;;;;;;;21.24;60.65;97120.00;10009814;29;20058;-83
2022/06/28 17:40:20;;;;;;;4.47;4.18;;;;;;;21.22;60.72;97128.47;10010406;29;20052;-83
2022/06/28 17:45:40;;;;;;;5.78;4.60;;;;;;;21.21;60.72;97145.03;10004958;29;20054;-83
2022/06/28 17:51:00;;;;;;;4.70;4.30;;;;;;;21.20;61.69;97152.38;10027734;29;20049;-84
2022/06/28 17:56:19;;;;;;;4.78;4.38;;;;;;;21.22;61.88;97146.66;10010324;29;20061;-84
2022/06/28 18:01:39;;;;;;;4.65;4.22;;;;;;;21.20;62.59;97162.44;10019629;29;20054;-83
2022/06/28 18:06:59;;;;;;;5.90;4.40;;;;;;;21.19;62.47;97144.56;10014402;29;20058;-83
2022/06/28 18:12:19;;;;;;;4.63;4.20;;;;;;;21.15;63.34;97141.75;10010429;29;20070;-82
2022/06/28 18:17:39;;;;;;;4.88;4.28;;;;;;;21.14;63.70;97137.44;9990965;29;20113;-83
2022/06/28 18:22:58;;;;;;;4.85;4.45;;;;;;;21.13;64.15;97144.00;10018246;29;20109;-83
2022/06/28 18:28:18;;;;;;;4.88;4.47;;;;;;;21.14;63.61;97140.94;10017776;29;20078;-83
2022/06/28 18:33:37;;;;;;;4.68;4.28;;;;;;;21.14;63.25;97145.56;9994713;29;20106;-83
2022/06/28 18:38:57;;;;;;;4.65;4.10;;;;;;;21.14;62.92;97154.47;9970234;29;20073;-82
2022/06/28 18:44:19;;;;;;;6.15;4.72;;;;;;;21.16;62.93;97156.88;9999684;29;20061;-82
2022/06/28 18:49:39;;;;;;;5.13;4.70;;;;;;;21.17;63.05;97144.09;10013022;29;20053;-82
2022/06/28 18:54:58;;;;;;;5.82;4.40;;;;;;;21.17;63.16;97141.41;9985867;29;20061;-86
2022/06/28 19:00:19;;;;;;;5.82;5.03;;;;;;;21.16;63.42;97135.19;10002267;29;20052;-86
2022/06/28 19:05:39;;;;;;;5.05;4.60;;;;;;;21.16;63.53;97142.53;9985918;29;20058;-87
2022/06/28 19:10:58;;;;;;;5.35;4.85;;;;;;;21.17;63.36;97154.94;10002384;29;20562;-85
2022/06/28 19:16:18;;;;;;;5.05;4.32;;;;;;;21.16;63.05;97153.38;9972431;29;20049;-86
2022/06/28 19:21:37;;;;;;;4.78;4.38;;;;;;;21.17;63.10;97152.22;9969183;29;20437;-85
2022/06/28 19:27:00;;;;;;;5.55;4.78;;;;;;;21.14;62.93;97162.59;9991286;29;20061;-86
2022/06/28 19:32:19;;;;;;;5.30;4.80;;;;;;;21.13;63.36;97157.53;10012892;29;20050;-85
2022/06/28 19:37:40;;;;;;;5.75;4.65;;;;;;;21.09;63.46;97154.69;9993152;29;20061;-85
2022/06/28 19:43:00;;;;;;;4.88;4.30;;;;;;;21.05;63.36;97164.56;10006100;29;20046;-86
2022/06/28 19:48:19;;;;;;;5.57;5.07;;;;;;;21.03;63.98;97161.41;10004526;29;20050;-86
2022/06/28 19:53:38;;;;;;;4.63;4.32;;;;;;;21.01;63.12;97158.22;9993823;29;20566;-84
2022/06/28 19:58:58;;;;;;;61.78;7.00;;;;;;;21.01;63.31;97152.81;10021049;29;20083;-84
2022/06/28 20:04:18;;;;;;;29.30;4.97;;;;;;;20.98;62.38;97153.44;9998995;29;20449;-84
2022/06/28 20:09:38;;;;;;;4.43;4.07;;;;;;;20.97;62.48;97157.25;10019045;29;20075;-85
2022/06/28 20:14:58;;;;;;;5.30;4.80;;;;;;;20.94;63.91;97149.78;9983262;29;20633;-82
2022/06/28 20:20:19;;;;;;;6.85;4.68;;;;;;;20.95;63.91;97137.81;10004241;29;20055;-82
2022/06/28 20:25:38;;;;;;;4.82;4.43;;;;;;;20.97;63.83;97132.88;10012842;29;20140;-82
2022/06/28 20:30:58;;;;;;;4.63;4.28;;;;;;;21.00;63.72;97118.69;9991653;29;20412;-83
2022/06/28 20:36:18;;;;;;;5.55;5.00;;;;;;;21.02;64.07;97127.28;10007138;29;20053;-83
2022/06/28 20:47:18;;;;;;;4.72;4.32;;;;;;;21.03;64.24;97123.47;10010971;29;20092;-83
2022/06/28 20:52:38;;;;;;;4.80;4.40;;;;;;;21.04;64.47;97124.25;10004899;29;20066;-83
2022/06/28 20:57:58;;;;;;;4.85;4.45;;;;;;;21.05;64.67;97131.25;9996369;29;20459;-83
2022/06/28 21:03:17;;;;;;;4.97;4.57;;;;;;;21.05;64.77;97142.91;10004664;29;20054;-84
2022/06/28 21:08:37;;;;;;;5.75;5.00;;;;;;;21.05;64.92;97180.81;10016848;29;20486;-83
2022/06/28 21:13:56;;;;;;;4.68;4.28;;;;;;;21.04;64.84;97206.31;10003062;29;20530;-83
2022/06/28 21:19:16;;;;;;;4.88;4.47;;;;;;;21.04;64.99;97168.38;10021642;29;20462;-83
2022/06/28 21:24:35;;;;;;;4.70;4.30;;;;;;;21.05;65.01;97142.09;10024460;29;20057;-84
2022/06/28 21:29:55;;;;;;;4.32;4.03;;;;;;;21.06;65.24;97122.81;10008802;29;20058;-83
2022/06/28 21:35:14;;;;;;;4.75;4.38;;;;;;;21.06;65.33;97111.19;10000339;29;20061;-83
2022/06/28 21:40:34;;;;;;;4.72;4.43;;;;;;;21.05;65.33;97096.03;9995561;29;20061;-83
2022/06/28 21:45:54;;;;;;;4.38;4.07;;;;;;;21.05;65.31;97099.56;10013168;29;20054;-82
2022/06/28 21:56:51;;;;;;;4.90;4.50;;;;;;;21.05;65.52;97067.06;10010704;29;20517;-83
2022/06/28 22:02:11;;;;;;;5.10;4.45;;;;;;;21.05;65.35;97036.44;10012221;29;20395;-83
2022/06/28 22:07:31;;;;;;;4.90;4.50;;;;;;;21.04;65.34;97019.41;9997200;29;20062;-83
2022/06/28 22:12:50;;;;;;;4.57;4.18;;;;;;;21.05;65.52;96998.53;9981403;29;20649;-83
2022/06/28 22:18:10;;;;;;;4.93;4.43;;;;;;;21.03;65.60;96958.25;10000230;29;20457;-84
2022/06/28 22:23:29;;;;;;;4.95;4.45;;;;;;;21.04;65.65;96949.00;10008605;29;20114;-83
2022/06/28 22:28:49;;;;;;;4.63;4.22;;;;;;;21.04;65.73;96932.75;10000723;29;20090;-83
2022/06/28 22:34:09;;;;;;;4.68;4.32;;;;;;;21.04;65.76;96927.31;9998601;29;20046;-83
2022/06/28 22:39:28;;;;;;;4.65;4.25;;;;;;;21.05;65.81;96958.72;9992898;29;20049;-84
2022/06/28 22:44:48;;;;;;;4.93;4.35;;;;;;;21.04;65.82;96959.03;10011488;29;20061;-83
2022/06/28 22:50:07;;;;;;;4.68;4.03;;;;;;;21.04;65.73;97000.44;9999416;29;20641;-84
2022/06/28 22:55:27;;;;;;;4.65;4.30;;;;;;;21.04;65.89;97021.34;9999610;29;20061;-85
2022/06/28 23:00:46;;;;;;;4.60;4.25;;;;;;;21.03;65.89;97009.72;9995603;29;20061;-83
2022/06/28 23:06:06;;;;;;;4.20;3.90;;;;;;;21.03;65.92;97001.59;10010559;29;20072;-83
2022/06/28 23:11:25;;;;;;;4.78;4.38;;;;;;;21.03;65.80;97003.47;9995258;29;20054;-83
2022/06/28 23:16:44;;;;;;;4.97;4.47;;;;;;;21.02;66.01;96991.84;10000483;29;20054;-83
2022/06/28 23:22:04;;;;;;;4.78;4.38;;;;;;;21.03;65.94;96989.94;10013301;29;20119;-83
2022/06/28 23:27:23;;;;;;;4.25;3.95;;;;;;;21.02;66.03;97004.63;9993424;29;20078;-83
2022/06/28 23:32:42;;;;;;;4.50;4.10;;;;;;;21.02;65.98;96996.50;10011768;29;20057;-83
2022/06/28 23:38:04;;;;;;;4.70;4.30;;;;;;;21.02;66.21;96997.28;9985547;29;20153;-83
2022/06/28 23:43:23;;;;;;;4.30;4.00;;;;;;;21.00;66.21;96985.97;9996619;29;20442;-84
2022/06/28 23:48:43;;;;;;;4.63;4.22;;;;;;;21.00;66.06;96967.03;10008471;29;20053;-83
2022/06/28 23:59:40;;;;;;;4.38;3.97;;;;;;;20.99;66.12;96962.72;9988560;29;20053;-84
